sensor_id;sensor_type;location;lat;lon;timestamp;pressure;altitude;pressure_sealevel;temperature;humidity
75409;BME280;63979;55.644;37.734;2024-02-04T00:00:39;97142.47;;;-0.27;81.39
75409;BME280;63979;55.644;37.734;2024-02-04T00:05:40;97151.97;;;0.12;81.13
75409;BME280;63979;55.644;37.734;2024-02-04T00:10:41;97139.53;;;0.03;81.00
75409;BME280;63979;55.644;37.734;2024-02-04T00:15:43;97139.94;;;0.09;81.84
75409;BME280;63979;55.644;37.734;2024-02-04T00:20:43;97116.09;;;-0.01;81.25
75409;BME280;63979;55.644;37.734;2024-02-04T00:25:44;97106.50;;;0.00;81.24
75409;BME280;63979;55.644;37.734;2024-02-04T00:30:45;97069.47;;;-0.08;81.83
75409;BME280;63979;55.644;37.734;2024-02-04T00:35:46;97095.50;;;0.31;81.37
75409;BME280;63979;55.644;37.734;2024-02-04T00:40:47;97085.59;;;0.11;81.72
75409;BME280;63979;55.644;37.734;2024-02-04T00:45:47;97068.50;;;0.06;81.72
75409;BME280;63979;55.644;37.734;2024-02-04T00:50:48;97067.28;;;0.22;82.40
75409;BME280;63979;55.644;37.734;2024-02-04T00:55:49;97067.53;;;0.19;83.17
75409;BME280;63979;55.644;37.734;2024-02-04T01:00:50;97058.47;;;0.36;82.68
75409;BME280;63979;55.644;37.734;2024-02-04T01:05:51;97024.66;;;0.31;82.51
75409;BME280;63979;55.644;37.734;2024-02-04T01:10:51;97019.66;;;0.52;81.82
75409;BME280;63979;55.644;37.734;2024-02-04T01:15:52;97025.72;;;0.77;81.40
75409;BME280;63979;55.644;37.734;2024-02-04T01:20:53;97015.84;;;0.91;80.61
75409;BME280;63979;55.644;37.734;2024-02-04T01:25:54;97013.25;;;1.03;79.80
75409;BME280;63979;55.644;37.734;2024-02-04T01:30:55;96986.13;;;0.91;80.02
75409;BME280;63979;55.644;37.734;2024-02-04T01:35:55;96985.94;;;1.05;80.23
75409;BME280;63979;55.644;37.734;2024-02-04T01:40:57;96959.88;;;0.80;81.57
75409;BME280;63979;55.644;37.734;2024-02-04T01:45:58;96974.22;;;0.98;81.92
75409;BME280;63979;55.644;37.734;2024-02-04T01:50:59;96972.66;;;0.96;82.00
75409;BME280;63979;55.644;37.734;2024-02-04T01:56:02;96961.13;;;1.09;81.10
75409;BME280;63979;55.644;37.734;2024-02-04T02:01:03;96950.38;;;1.12;80.50
75409;BME280;63979;55.644;37.734;2024-02-04T02:06:05;96936.28;;;1.13;80.76
75409;BME280;63979;55.644;37.734;2024-02-04T02:11:13;96918.84;;;1.01;80.80
75409;BME280;63979;55.644;37.734;2024-02-04T02:16:19;96923.28;;;1.12;81.21
75409;BME280;63979;55.644;37.734;2024-02-04T02:22:04;96924.22;;;1.22;81.33
75409;BME280;63979;55.644;37.734;2024-02-04T02:27:03;96913.84;;;1.20;81.61
75409;BME280;63979;55.644;37.734;2024-02-04T02:32:06;96915.63;;;1.31;81.81
75409;BME280;63979;55.644;37.734;2024-02-04T02:42:12;96876.47;;;1.28;82.29
75409;BME280;63979;55.644;37.734;2024-02-04T02:47:15;96876.94;;;1.44;82.36
75409;BME280;63979;55.644;37.734;2024-02-04T02:52:16;96883.72;;;1.58;82.06
75409;BME280;63979;55.644;37.734;2024-02-04T02:57:16;96838.34;;;1.34;81.84
75409;BME280;63979;55.644;37.734;2024-02-04T03:07:37;96867.13;;;1.46;81.77
75409;BME280;63979;55.644;37.734;2024-02-04T03:12:38;96874.63;;;1.62;81.61
75409;BME280;63979;55.644;37.734;2024-02-04T03:17:38;96847.00;;;1.68;82.33
75409;BME280;63979;55.644;37.734;2024-02-04T03:22:39;96847.50;;;1.62;82.72
75409;BME280;63979;55.644;37.734;2024-02-04T03:27:40;96849.03;;;1.75;82.69
75409;BME280;63979;55.644;37.734;2024-02-04T03:32:41;96842.19;;;1.84;82.46
75409;BME280;63979;55.644;37.734;2024-02-04T03:37:41;96850.66;;;1.87;82.53
75409;BME280;63979;55.644;37.734;2024-02-04T03:42:42;96832.00;;;1.91;82.26
75409;BME280;63979;55.644;37.734;2024-02-04T03:47:43;96828.09;;;1.85;82.63
75409;BME280;63979;55.644;37.734;2024-02-04T03:52:44;96832.19;;;1.99;82.27
75409;BME280;63979;55.644;37.734;2024-02-04T03:57:45;96829.16;;;2.14;81.84
75409;BME280;63979;55.644;37.734;2024-02-04T04:02:45;96818.63;;;2.14;82.03
75409;BME280;63979;55.644;37.734;2024-02-04T04:07:46;96815.09;;;2.25;81.80
75409;BME280;63979;55.644;37.734;2024-02-04T04:12:47;96821.91;;;2.28;81.57
75409;BME280;63979;55.644;37.734;2024-02-04T04:17:48;96822.78;;;2.38;81.14
75409;BME280;63979;55.644;37.734;2024-02-04T04:22:48;96801.63;;;2.18;81.46
75409;BME280;63979;55.644;37.734;2024-02-04T04:27:49;96810.72;;;2.35;81.39
75409;BME280;63979;55.644;37.734;2024-02-04T04:32:50;96802.69;;;2.37;81.42
75409;BME280;63979;55.644;37.734;2024-02-04T04:37:51;96797.69;;;2.34;81.72
75409;BME280;63979;55.644;37.734;2024-02-04T04:43:10;96797.53;;;2.46;81.45
75409;BME280;63979;55.644;37.734;2024-02-04T04:48:11;96789.28;;;2.40;81.75
75409;BME280;63979;55.644;37.734;2024-02-04T04:53:11;96791.28;;;2.47;81.42
75409;BME280;63979;55.644;37.734;2024-02-04T04:58:12;96782.00;;;2.43;81.44
75409;BME280;63979;55.644;37.734;2024-02-04T05:03:13;96792.81;;;2.50;81.06
75409;BME280;63979;55.644;37.734;2024-02-04T05:08:14;96778.97;;;2.48;81.23
75409;BME280;63979;55.644;37.734;2024-02-04T05:13:16;96777.34;;;2.57;80.91
75409;BME280;63979;55.644;37.734;2024-02-04T05:18:16;96771.38;;;2.55;81.13
75409;BME280;63979;55.644;37.734;2024-02-04T05:23:17;96763.78;;;2.61;80.75
75409;BME280;63979;55.644;37.734;2024-02-04T05:28:18;96756.16;;;2.58;80.86
75409;BME280;63979;55.644;37.734;2024-02-04T05:33:19;96756.75;;;2.71;80.55
75409;BME280;63979;55.644;37.734;2024-02-04T05:38:21;96757.59;;;2.72;80.23
75409;BME280;63979;55.644;37.734;2024-02-04T05:43:22;96758.69;;;2.69;79.58
75409;BME280;63979;55.644;37.734;2024-02-04T05:48:23;96746.09;;;2.73;79.13
75409;BME280;63979;55.644;37.734;2024-02-04T05:53:24;96744.75;;;2.78;79.33
75409;BME280;63979;55.644;37.734;2024-02-04T05:58:25;96760.16;;;2.83;79.17
75409;BME280;63979;55.644;37.734;2024-02-04T06:03:25;96753.38;;;2.90;78.31
75409;BME280;63979;55.644;37.734;2024-02-04T06:08:26;96745.34;;;2.92;77.69
75409;BME280;63979;55.644;37.734;2024-02-04T06:13:27;96761.59;;;3.06;77.22
75409;BME280;63979;55.644;37.734;2024-02-04T06:18:28;96762.47;;;3.17;76.77
75409;BME280;63979;55.644;37.734;2024-02-04T06:23:29;96770.00;;;3.40;75.83
75409;BME280;63979;55.644;37.734;2024-02-04T06:28:30;96776.28;;;3.59;75.15
75409;BME280;63979;55.644;37.734;2024-02-04T06:33:30;96781.56;;;3.59;74.37
75409;BME280;63979;55.644;37.734;2024-02-04T06:38:31;96763.66;;;3.53;74.21
75409;BME280;63979;55.644;37.734;2024-02-04T06:43:32;96792.81;;;3.80;73.67
75409;BME280;63979;55.644;37.734;2024-02-04T06:48:33;96788.63;;;3.49;74.11
75409;BME280;63979;55.644;37.734;2024-02-04T06:53:34;96797.44;;;3.28;75.00
75409;BME280;63979;55.644;37.734;2024-02-04T06:58:37;96828.41;;;3.45;75.02
75409;BME280;63979;55.644;37.734;2024-02-04T07:03:38;96833.00;;;3.43;75.52
75409;BME280;63979;55.644;37.734;2024-02-04T07:08:39;96844.03;;;3.68;74.55
75409;BME280;63979;55.644;37.734;2024-02-04T07:13:40;96847.06;;;3.63;73.89
75409;BME280;63979;55.644;37.734;2024-02-04T07:18:41;96855.28;;;3.80;74.04
75409;BME280;63979;55.644;37.734;2024-02-04T07:23:42;96856.25;;;3.79;73.59
75409;BME280;63979;55.644;37.734;2024-02-04T07:28:43;96857.91;;;3.70;73.72
75409;BME280;63979;55.644;37.734;2024-02-04T07:33:43;96884.53;;;3.57;74.75
75409;BME280;63979;55.644;37.734;2024-02-04T07:38:45;96875.53;;;3.79;74.11
75409;BME280;63979;55.644;37.734;2024-02-04T07:43:46;96889.72;;;3.78;73.93
75409;BME280;63979;55.644;37.734;2024-02-04T07:48:48;96870.19;;;3.90;73.20
75409;BME280;63979;55.644;37.734;2024-02-04T07:53:49;96893.22;;;3.88;72.56
75409;BME280;63979;55.644;37.734;2024-02-04T07:58:50;96915.25;;;3.78;73.33
75409;BME280;63979;55.644;37.734;2024-02-04T08:03:51;96924.13;;;3.76;73.48
75409;BME280;63979;55.644;37.734;2024-02-04T08:08:51;96923.16;;;3.68;72.92
75409;BME280;63979;55.644;37.734;2024-02-04T08:13:52;96939.66;;;3.70;72.69
75409;BME280;63979;55.644;37.734;2024-02-04T08:18:53;96950.91;;;3.72;73.18
75409;BME280;63979;55.644;37.734;2024-02-04T08:23:54;96942.19;;;3.41;73.16
75409;BME280;63979;55.644;37.734;2024-02-04T08:28:55;96981.66;;;3.52;73.54
75409;BME280;63979;55.644;37.734;2024-02-04T08:33:56;96998.31;;;3.53;73.78
75409;BME280;63979;55.644;37.734;2024-02-04T08:38:58;96967.66;;;3.52;73.07
75409;BME280;63979;55.644;37.734;2024-02-04T08:43:59;97000.88;;;3.64;72.36
75409;BME280;63979;55.644;37.734;2024-02-04T08:49:00;97003.34;;;3.86;72.01
75409;BME280;63979;55.644;37.734;2024-02-04T08:54:01;97001.81;;;3.84;71.31
75409;BME280;63979;55.644;37.734;2024-02-04T08:59:03;97030.72;;;3.64;72.61
75409;BME280;63979;55.644;37.734;2024-02-04T09:04:06;97039.28;;;3.57;71.93
75409;BME280;63979;55.644;37.734;2024-02-04T09:09:07;97032.28;;;3.76;70.54
75409;BME280;63979;55.644;37.734;2024-02-04T09:14:09;97043.53;;;4.09;69.12
75409;BME280;63979;55.644;37.734;2024-02-04T09:19:10;97040.03;;;3.99;67.95
75409;BME280;63979;55.644;37.734;2024-02-04T09:24:11;97019.28;;;4.25;67.02
75409;BME280;63979;55.644;37.734;2024-02-04T09:29:12;97007.13;;;4.03;67.12
75409;BME280;63979;55.644;37.734;2024-02-04T09:34:12;97024.66;;;4.14;66.29
75409;BME280;63979;55.644;37.734;2024-02-04T09:39:14;97038.78;;;3.93;66.13
75409;BME280;63979;55.644;37.734;2024-02-04T09:44:15;97036.00;;;3.95;65.70
75409;BME280;63979;55.644;37.734;2024-02-04T09:49:16;97041.38;;;4.24;64.97
75409;BME280;63979;55.644;37.734;2024-02-04T09:54:18;97017.34;;;4.27;64.21
75409;BME280;63979;55.644;37.734;2024-02-04T09:59:22;97056.84;;;4.38;63.29
75409;BME280;63979;55.644;37.734;2024-02-04T10:04:24;97049.75;;;4.38;62.99
75409;BME280;63979;55.644;37.734;2024-02-04T10:09:25;97069.19;;;3.97;64.06
75409;BME280;63979;55.644;37.734;2024-02-04T10:14:26;97055.19;;;3.76;64.01
75409;BME280;63979;55.644;37.734;2024-02-04T10:19:27;97058.19;;;3.83;63.42
75409;BME280;63979;55.644;37.734;2024-02-04T10:24:28;97073.47;;;4.69;60.46
75409;BME280;63979;55.644;37.734;2024-02-04T10:29:29;97075.41;;;4.77;57.38
75409;BME280;63979;55.644;37.734;2024-02-04T10:34:31;97061.25;;;4.97;57.96
75409;BME280;63979;55.644;37.734;2024-02-04T10:39:32;97065.09;;;5.51;55.87
75409;BME280;63979;55.644;37.734;2024-02-04T10:44:35;97105.69;;;6.08;54.61
75409;BME280;63979;55.644;37.734;2024-02-04T10:49:45;97110.09;;;5.60;55.54
75409;BME280;63979;55.644;37.734;2024-02-04T10:54:50;97102.44;;;5.19;56.08
75409;BME280;63979;55.644;37.734;2024-02-04T10:59:52;97119.41;;;5.16;56.37
75409;BME280;63979;55.644;37.734;2024-02-04T11:04:54;97127.16;;;4.79;56.51
75409;BME280;63979;55.644;37.734;2024-02-04T11:09:57;97126.28;;;4.69;57.59
75409;BME280;63979;55.644;37.734;2024-02-04T11:15:01;97134.63;;;4.64;58.22
75409;BME280;63979;55.644;37.734;2024-02-04T11:25:49;97134.09;;;4.70;57.83
75409;BME280;63979;55.644;37.734;2024-02-04T11:30:51;97149.78;;;4.62;58.64
75409;BME280;63979;55.644;37.734;2024-02-04T11:36:05;97126.06;;;4.91;56.57
75409;BME280;63979;55.644;37.734;2024-02-04T11:41:07;97142.63;;;6.09;53.77
75409;BME280;63979;55.644;37.734;2024-02-04T11:46:16;97146.97;;;6.75;52.10
75409;BME280;63979;55.644;37.734;2024-02-04T11:51:22;97137.81;;;6.69;52.69
75409;BME280;63979;55.644;37.734;2024-02-04T11:56:24;97149.66;;;7.73;50.47
75409;BME280;63979;55.644;37.734;2024-02-04T12:01:25;97147.25;;;8.06;47.96
75409;BME280;63979;55.644;37.734;2024-02-04T12:06:26;97143.34;;;7.57;49.14
75409;BME280;63979;55.644;37.734;2024-02-04T12:11:27;97166.97;;;9.23;45.01
75409;BME280;63979;55.644;37.734;2024-02-04T12:16:29;97151.97;;;12.53;36.79
75409;BME280;63979;55.644;37.734;2024-02-04T12:21:30;97141.47;;;10.67;40.77
75409;BME280;63979;55.644;37.734;2024-02-04T12:26:31;97175.91;;;9.06;45.47
75409;BME280;63979;55.644;37.734;2024-02-04T12:31:32;97172.44;;;7.13;49.60
75409;BME280;63979;55.644;37.734;2024-02-04T12:36:33;97191.28;;;5.60;54.48
75409;BME280;63979;55.644;37.734;2024-02-04T12:41:34;97192.63;;;4.76;57.54
75409;BME280;63979;55.644;37.734;2024-02-04T12:46:36;97202.03;;;4.07;60.72
75409;BME280;63979;55.644;37.734;2024-02-04T12:51:37;97207.50;;;4.16;60.64
75409;BME280;63979;55.644;37.734;2024-02-04T12:56:51;97212.94;;;3.93;61.01
75409;BME280;63979;55.644;37.734;2024-02-04T13:02:02;97195.28;;;3.73;62.07
75409;BME280;63979;55.644;37.734;2024-02-04T13:07:11;97203.16;;;3.84;60.93
75409;BME280;63979;55.644;37.734;2024-02-04T13:12:14;97167.34;;;3.50;61.14
75409;BME280;63979;55.644;37.734;2024-02-04T13:17:16;97176.03;;;3.61;61.72
75409;BME280;63979;55.644;37.734;2024-02-04T13:22:17;97161.44;;;3.57;60.98
75409;BME280;63979;55.644;37.734;2024-02-04T13:27:18;97221.22;;;3.89;61.23
75409;BME280;63979;55.644;37.734;2024-02-04T13:32:19;97217.38;;;3.29;63.87
75409;BME280;63979;55.644;37.734;2024-02-04T13:37:20;97220.81;;;3.40;63.26
75409;BME280;63979;55.644;37.734;2024-02-04T13:42:22;97217.59;;;3.37;63.76
75409;BME280;63979;55.644;37.734;2024-02-04T13:47:23;97205.47;;;3.02;64.36
75409;BME280;63979;55.644;37.734;2024-02-04T13:52:25;97181.31;;;2.75;65.12
75409;BME280;63979;55.644;37.734;2024-02-04T13:57:26;97223.34;;;2.76;66.02
75409;BME280;63979;55.644;37.734;2024-02-04T14:02:27;97225.16;;;2.87;66.29
75409;BME280;63979;55.644;37.734;2024-02-04T14:07:30;97192.94;;;2.84;66.38
75409;BME280;63979;55.644;37.734;2024-02-04T14:12:31;97227.72;;;3.09;65.46
75409;BME280;63979;55.644;37.734;2024-02-04T14:17:32;97233.63;;;3.13;65.18
75409;BME280;63979;55.644;37.734;2024-02-04T14:22:33;97234.06;;;3.18;64.93
75409;BME280;63979;55.644;37.734;2024-02-04T14:27:34;97236.59;;;3.20;64.53
75409;BME280;63979;55.644;37.734;2024-02-04T14:32:37;97229.56;;;2.98;65.93
75409;BME280;63979;55.644;37.734;2024-02-04T14:37:38;97198.09;;;2.85;65.46
75409;BME280;63979;55.644;37.734;2024-02-04T14:42:43;97228.44;;;3.23;65.33
75409;BME280;63979;55.644;37.734;2024-02-04T14:47:44;97232.03;;;3.22;63.68
75409;BME280;63979;55.644;37.734;2024-02-04T14:52:45;97229.09;;;3.36;63.78
75409;BME280;63979;55.644;37.734;2024-02-04T14:57:46;97237.38;;;3.31;63.98
75409;BME280;63979;55.644;37.734;2024-02-04T15:02:47;97235.13;;;3.27;64.56
75409;BME280;63979;55.644;37.734;2024-02-04T15:07:48;97207.50;;;2.99;64.90
75409;BME280;63979;55.644;37.734;2024-02-04T15:12:50;97232.94;;;2.89;66.20
75409;BME280;63979;55.644;37.734;2024-02-04T15:17:53;97251.38;;;2.89;66.40
75409;BME280;63979;55.644;37.734;2024-02-04T15:22:54;97254.00;;;2.89;66.69
75409;BME280;63979;55.644;37.734;2024-02-04T15:27:57;97245.84;;;2.92;66.86
75409;BME280;63979;55.644;37.734;2024-02-04T15:33:39;97251.59;;;2.86;67.42
75409;BME280;63979;55.644;37.734;2024-02-04T15:38:40;97226.09;;;2.75;67.61
75409;BME280;63979;55.644;37.734;2024-02-04T15:43:40;97230.28;;;2.77;67.60
75409;BME280;63979;55.644;37.734;2024-02-04T15:48:42;97234.38;;;2.81;67.68
75409;BME280;63979;55.644;37.734;2024-02-04T15:53:44;97242.84;;;2.74;68.60
75409;BME280;63979;55.644;37.734;2024-02-04T15:58:46;97236.28;;;2.79;68.67
75409;BME280;63979;55.644;37.734;2024-02-04T16:03:47;97200.84;;;2.61;68.77
75409;BME280;63979;55.644;37.734;2024-02-04T16:08:49;97225.25;;;2.74;69.20
75409;BME280;63979;55.644;37.734;2024-02-04T16:13:53;97226.56;;;2.69;68.52
75409;BME280;63979;55.644;37.734;2024-02-04T16:18:55;97216.91;;;2.58;69.31
75409;BME280;63979;55.644;37.734;2024-02-04T16:23:57;97196.91;;;2.56;68.82
75409;BME280;63979;55.644;37.734;2024-02-04T16:28:58;97223.56;;;2.73;68.79
75409;BME280;63979;55.644;37.734;2024-02-04T16:33:59;97218.81;;;2.56;69.69
75409;BME280;63979;55.644;37.734;2024-02-04T16:39:00;97217.63;;;2.49;72.68
75409;BME280;63979;55.644;37.734;2024-02-04T16:44:06;97223.59;;;2.51;73.29
75409;BME280;63979;55.644;37.734;2024-02-04T16:49:06;97217.84;;;2.68;72.54
75409;BME280;63979;55.644;37.734;2024-02-04T16:54:08;97221.91;;;2.84;71.38
75409;BME280;63979;55.644;37.734;2024-02-04T16:59:10;97219.34;;;3.04;69.93
75409;BME280;63979;55.644;37.734;2024-02-04T17:04:12;97212.16;;;3.18;69.59
75409;BME280;63979;55.644;37.734;2024-02-04T17:09:13;97212.25;;;3.27;69.33
75409;BME280;63979;55.644;37.734;2024-02-04T17:14:17;97207.31;;;2.79;71.50
75409;BME280;63979;55.644;37.734;2024-02-04T17:19:39;97208.28;;;2.78;72.32
75409;BME280;63979;55.644;37.734;2024-02-04T17:24:45;97203.22;;;2.75;72.50
75409;BME280;63979;55.644;37.734;2024-02-04T17:29:47;97154.44;;;2.49;72.71
75409;BME280;63979;55.644;37.734;2024-02-04T17:34:56;97199.53;;;2.67;72.80
75409;BME280;63979;55.644;37.734;2024-02-04T17:39:59;97187.81;;;2.60;72.01
75409;BME280;63979;55.644;37.734;2024-02-04T17:45:00;97187.41;;;2.75;71.92
75409;BME280;63979;55.644;37.734;2024-02-04T17:50:07;97192.91;;;2.95;71.82
75409;BME280;63979;55.644;37.734;2024-02-04T17:55:08;97196.81;;;3.11;72.18
75409;BME280;63979;55.644;37.734;2024-02-04T18:00:09;97192.13;;;3.26;72.50
75409;BME280;63979;55.644;37.734;2024-02-04T18:05:13;97189.06;;;2.99;74.49
75409;BME280;63979;55.644;37.734;2024-02-04T18:10:14;97198.44;;;2.92;74.88
75409;BME280;63979;55.644;37.734;2024-02-04T18:15:15;97203.91;;;3.00;75.63
75409;BME280;63979;55.644;37.734;2024-02-04T18:20:16;97203.44;;;2.95;75.14
75409;BME280;63979;55.644;37.734;2024-02-04T18:25:17;97192.91;;;2.95;75.39
75409;BME280;63979;55.644;37.734;2024-02-04T18:30:18;97194.72;;;2.72;74.88
75409;BME280;63979;55.644;37.734;2024-02-04T18:35:21;97193.66;;;2.86;74.47
75409;BME280;63979;55.644;37.734;2024-02-04T18:40:22;97171.28;;;2.69;74.16
75409;BME280;63979;55.644;37.734;2024-02-04T18:45:23;97202.66;;;2.61;76.05
75409;BME280;63979;55.644;37.734;2024-02-04T18:50:25;97202.91;;;2.46;76.08
75409;BME280;63979;55.644;37.734;2024-02-04T18:55:27;97212.59;;;2.57;75.27
75409;BME280;63979;55.644;37.734;2024-02-04T19:00:28;97207.56;;;2.43;76.31
75409;BME280;63979;55.644;37.734;2024-02-04T19:05:29;97213.69;;;2.43;76.19
75409;BME280;63979;55.644;37.734;2024-02-04T19:10:30;97207.31;;;2.35;76.74
75409;BME280;63979;55.644;37.734;2024-02-04T19:15:31;97203.03;;;2.45;76.65
75409;BME280;63979;55.644;37.734;2024-02-04T19:20:32;97223.72;;;2.49;76.30
75409;BME280;63979;55.644;37.734;2024-02-04T19:25:33;97216.91;;;2.58;76.47
75409;BME280;63979;55.644;37.734;2024-02-04T19:30:34;97198.44;;;2.36;76.04
75409;BME280;63979;55.644;37.734;2024-02-04T19:35:39;97221.53;;;2.32;75.81
75409;BME280;63979;55.644;37.734;2024-02-04T19:40:41;97235.19;;;2.26;76.22
75409;BME280;63979;55.644;37.734;2024-02-04T19:45:43;97228.47;;;2.22;75.77
75409;BME280;63979;55.644;37.734;2024-02-04T19:50:44;97220.22;;;2.15;74.94
75409;BME280;63979;55.644;37.734;2024-02-04T19:55:45;97229.16;;;2.02;74.88
75409;BME280;63979;55.644;37.734;2024-02-04T20:00:47;97226.03;;;1.97;74.69
75409;BME280;63979;55.644;37.734;2024-02-04T20:05:47;97227.47;;;2.01;74.95
75409;BME280;63979;55.644;37.734;2024-02-04T20:10:48;97230.50;;;2.18;74.04
75409;BME280;63979;55.644;37.734;2024-02-04T20:15:51;97241.53;;;2.35;73.46
75409;BME280;63979;55.644;37.734;2024-02-04T20:20:52;97244.06;;;2.47;73.79
75409;BME280;63979;55.644;37.734;2024-02-04T20:25:53;97243.09;;;2.48;72.91
75409;BME280;63979;55.644;37.734;2024-02-04T20:30:56;97242.38;;;2.46;72.80
75409;BME280;63979;55.644;37.734;2024-02-04T20:35:58;97242.84;;;2.40;72.69
75409;BME280;63979;55.644;37.734;2024-02-04T20:40:59;97239.25;;;2.41;72.97
75409;BME280;63979;55.644;37.734;2024-02-04T20:46:00;97221.91;;;2.28;72.56
75409;BME280;63979;55.644;37.734;2024-02-04T20:51:06;97244.19;;;2.46;72.32
75409;BME280;63979;55.644;37.734;2024-02-04T20:56:06;97240.22;;;2.40;71.98
75409;BME280;63979;55.644;37.734;2024-02-04T21:01:09;97264.63;;;2.42;71.94
75409;BME280;63979;55.644;37.734;2024-02-04T21:06:18;97261.50;;;2.37;71.83
75409;BME280;63979;55.644;37.734;2024-02-04T21:11:23;97270.22;;;2.27;72.32
75409;BME280;63979;55.644;37.734;2024-02-04T21:16:24;97264.53;;;2.44;71.69
75409;BME280;63979;55.644;37.734;2024-02-04T21:21:25;97259.59;;;2.39;71.72
75409;BME280;63979;55.644;37.734;2024-02-04T21:26:26;97245.72;;;2.37;72.00
75409;BME280;63979;55.644;37.734;2024-02-04T21:31:27;97237.25;;;2.45;71.81
75409;BME280;63979;55.644;37.734;2024-02-04T21:36:27;97234.69;;;2.32;72.15
75409;BME280;63979;55.644;37.734;2024-02-04T21:41:28;97247.91;;;1.97;72.18
75409;BME280;63979;55.644;37.734;2024-02-04T21:46:29;97249.72;;;1.73;73.43
75409;BME280;63979;55.644;37.734;2024-02-04T21:51:30;97223.13;;;1.77;73.25
75409;BME280;63979;55.644;37.734;2024-02-04T21:56:31;97246.25;;;2.07;72.94
75409;BME280;63979;55.644;37.734;2024-02-04T22:01:32;97243.66;;;2.18;72.67
75409;BME280;63979;55.644;37.734;2024-02-04T22:06:33;97248.34;;;2.26;72.51
75409;BME280;63979;55.644;37.734;2024-02-04T22:11:34;97253.94;;;2.10;73.05
75409;BME280;63979;55.644;37.734;2024-02-04T22:16:41;97249.34;;;1.66;74.86
75409;BME280;63979;55.644;37.734;2024-02-04T22:21:42;97254.00;;;1.98;75.44
75409;BME280;63979;55.644;37.734;2024-02-04T22:26:43;97253.72;;;2.13;75.13
75409;BME280;63979;55.644;37.734;2024-02-04T22:31:44;97253.00;;;2.23;74.94
75409;BME280;63979;55.644;37.734;2024-02-04T22:36:44;97254.38;;;2.04;75.73
75409;BME280;63979;55.644;37.734;2024-02-04T22:41:45;97251.78;;;1.45;75.23
75409;BME280;63979;55.644;37.734;2024-02-04T22:46:46;97260.91;;;1.52;75.65
75409;BME280;63979;55.644;37.734;2024-02-04T22:51:48;97267.78;;;1.42;73.90
75409;BME280;63979;55.644;37.734;2024-02-04T22:56:49;97250.88;;;1.58;73.15
75409;BME280;63979;55.644;37.734;2024-02-04T23:01:50;97258.19;;;1.65;71.70
75409;BME280;63979;55.644;37.734;2024-02-04T23:06:51;97255.19;;;1.59;71.30
75409;BME280;63979;55.644;37.734;2024-02-04T23:11:52;97252.88;;;1.78;69.71
75409;BME280;63979;55.644;37.734;2024-02-04T23:16:53;97251.53;;;1.72;70.13
75409;BME280;63979;55.644;37.734;2024-02-04T23:21:54;97261.72;;;1.77;69.19
75409;BME280;63979;55.644;37.734;2024-02-04T23:26:56;97246.63;;;1.68;69.68
75409;BME280;63979;55.644;37.734;2024-02-04T23:31:56;97241.53;;;1.77;69.88
75409;BME280;63979;55.644;37.734;2024-02-04T23:36:57;97223.84;;;1.79;69.75
75409;BME280;63979;55.644;37.734;2024-02-04T23:41:58;97238.00;;;1.66;68.91
75409;BME280;63979;55.644;37.734;2024-02-04T23:46:59;97244.91;;;1.32;70.77
75409;BME280;63979;55.644;37.734;2024-02-04T23:52:00;97229.69;;;1.24;70.24
75409;BME280;63979;55.644;37.734;2024-02-04T23:57:01;97233.50;;;1.20;70.67
